Vero Beach, Florida
Current Conditions -  °F | °C
As of 12:53 PM on Thursday 30 Oct 2014 (Local Time) from KVRB Reporting Station
Scattered Clouds Scattered Clouds  
Wind Chill: 83°   Ceiling: Unl
Heat Index: 83°   Visibility: 10mi
Dew Point: 59°   Wind: 6mph
Humidity: 44%   Direction: 340°NNW
Pressure: 29.95"   Gusts: NA
Location:  27.64°N, 80.39°W
Report Text: KVRB 301653Z 34005KT 10SM SCT047 28/15 A2995 RMK AO2 SLP141 T02830150 $
Loading
Personal Weather Stations






























Interactive Weather Map
Tropical Storm Tracking
New forecast layout! Learn more

10-Day Weather Forecast

Advertisements
Track Severe Weather on mobile